Terminal Aerodrome Forecast
Issued by NWS Sterling, VA

Current Version | Previous Version | Graphics & Text | Print | Product List | Glossary On
Versions: 1 2 3 4 5 6 7 8 9 10 11 12 13 14 15 16 17 18 19 20 21 22 23 24 25
815
FTUS41 KLWX 230141 AAA
TAFDCA
TAF AMD
KDCA 230141Z 2302/2406 VRB03KT P6SM SCT008 SCT020
     FM230600 VRB03KT 5SM BR SCT008 BKN025
     FM230900 VRB03KT 3SM BR SCT008 BKN025
     FM231200 28006KT P6SM BKN035
     FM231600 33010G16KT P6SM SCT040
     FM240000 VRB03KT P6SM FEW250=

USA.gov is the U.S. government's official web portal to all federal, state and local government web resources and services.